sensor_id;sensor_type;location;lat;lon;timestamp;temperature;humidity
24412;DHT22;12544;46.760;15.942;2023-07-16T00:00:01;22.60;99.90
24412;DHT22;12544;46.760;15.942;2023-07-16T00:02:29;22.60;99.90
24412;DHT22;12544;46.760;15.942;2023-07-16T00:04:55;22.60;99.90
24412;DHT22;12544;46.760;15.942;2023-07-16T00:07:20;22.70;99.90
24412;DHT22;12544;46.760;15.942;2023-07-16T00:09:46;22.70;99.90
24412;DHT22;12544;46.760;15.942;2023-07-16T00:12:12;22.70;99.90
24412;DHT22;12544;46.760;15.942;2023-07-16T00:14:37;22.70;99.90
24412;DHT22;12544;46.760;15.942;2023-07-16T00:17:03;22.70;99.90
24412;DHT22;12544;46.760;15.942;2023-07-16T00:19:29;22.70;99.90
24412;DHT22;12544;46.760;15.942;2023-07-16T00:21:55;22.60;99.90
24412;DHT22;12544;46.760;15.942;2023-07-16T00:24:21;22.70;99.90
24412;DHT22;12544;46.760;15.942;2023-07-16T00:26:46;22.70;99.90
24412;DHT22;12544;46.760;15.942;2023-07-16T00:29:12;22.80;99.90
24412;DHT22;12544;46.760;15.942;2023-07-16T00:31:38;22.80;99.90
24412;DHT22;12544;46.760;15.942;2023-07-16T00:34:03;22.80;99.90
24412;DHT22;12544;46.760;15.942;2023-07-16T00:36:29;22.80;99.90
24412;DHT22;12544;46.760;15.942;2023-07-16T00:38:54;22.90;99.90
24412;DHT22;12544;46.760;15.942;2023-07-16T00:41:20;22.90;99.90
24412;DHT22;12544;46.760;15.942;2023-07-16T00:43:46;22.80;99.90
24412;DHT22;12544;46.760;15.942;2023-07-16T00:46:12;22.80;99.90
24412;DHT22;12544;46.760;15.942;2023-07-16T00:48:38;22.70;99.90
24412;DHT22;12544;46.760;15.942;2023-07-16T00:51:04;22.70;99.90
24412;DHT22;12544;46.760;15.942;2023-07-16T00:53:30;22.70;99.90
24412;DHT22;12544;46.760;15.942;2023-07-16T00:55:56;22.60;99.90
24412;DHT22;12544;46.760;15.942;2023-07-16T00:58:22;22.60;99.90
24412;DHT22;12544;46.760;15.942;2023-07-16T01:00:47;22.60;99.90
24412;DHT22;12544;46.760;15.942;2023-07-16T01:03:14;22.60;99.90
24412;DHT22;12544;46.760;15.942;2023-07-16T01:10:59;22.50;99.90
24412;DHT22;12544;46.760;15.942;2023-07-16T01:13:25;22.40;99.90
24412;DHT22;12544;46.760;15.942;2023-07-16T01:15:52;22.40;99.90
24412;DHT22;12544;46.760;15.942;2023-07-16T01:18:17;22.30;99.90
24412;DHT22;12544;46.760;15.942;2023-07-16T01:20:43;22.30;99.90
24412;DHT22;12544;46.760;15.942;2023-07-16T01:23:26;22.20;99.90
24412;DHT22;12544;46.760;15.942;2023-07-16T01:26:18;22.20;99.90
24412;DHT22;12544;46.760;15.942;2023-07-16T01:31:32;22.10;99.90
24412;DHT22;12544;46.760;15.942;2023-07-16T01:33:59;22.10;99.90
24412;DHT22;12544;46.760;15.942;2023-07-16T01:36:26;22.10;99.90
24412;DHT22;12544;46.760;15.942;2023-07-16T01:38:53;22.00;99.90
24412;DHT22;12544;46.760;15.942;2023-07-16T01:41:19;22.00;99.90
24412;DHT22;12544;46.760;15.942;2023-07-16T01:43:44;22.00;99.90
24412;DHT22;12544;46.760;15.942;2023-07-16T01:46:10;22.00;99.90
24412;DHT22;12544;46.760;15.942;2023-07-16T01:48:37;22.00;99.90
24412;DHT22;12544;46.760;15.942;2023-07-16T01:51:04;22.00;99.90
24412;DHT22;12544;46.760;15.942;2023-07-16T01:53:29;22.00;99.90
24412;DHT22;12544;46.760;15.942;2023-07-16T01:55:57;22.00;99.90
24412;DHT22;12544;46.760;15.942;2023-07-16T01:58:22;21.90;99.90
24412;DHT22;12544;46.760;15.942;2023-07-16T02:00:49;21.90;99.90
24412;DHT22;12544;46.760;15.942;2023-07-16T02:03:15;21.80;99.90
24412;DHT22;12544;46.760;15.942;2023-07-16T02:05:41;21.80;99.90
24412;DHT22;12544;46.760;15.942;2023-07-16T02:08:07;21.80;99.90
24412;DHT22;12544;46.760;15.942;2023-07-16T02:10:33;21.70;99.90
24412;DHT22;12544;46.760;15.942;2023-07-16T02:12:59;21.70;99.90
24412;DHT22;12544;46.760;15.942;2023-07-16T02:15:24;21.70;99.90
24412;DHT22;12544;46.760;15.942;2023-07-16T02:17:50;21.70;99.90
24412;DHT22;12544;46.760;15.942;2023-07-16T02:20:16;21.70;99.90
24412;DHT22;12544;46.760;15.942;2023-07-16T02:22:41;21.60;99.90
24412;DHT22;12544;46.760;15.942;2023-07-16T02:25:07;21.60;99.90
24412;DHT22;12544;46.760;15.942;2023-07-16T02:27:33;21.50;99.90
24412;DHT22;12544;46.760;15.942;2023-07-16T02:29:58;21.50;99.90
24412;DHT22;12544;46.760;15.942;2023-07-16T02:32:24;21.40;99.90
24412;DHT22;12544;46.760;15.942;2023-07-16T02:34:50;21.40;99.90
24412;DHT22;12544;46.760;15.942;2023-07-16T02:37:15;21.40;99.90
24412;DHT22;12544;46.760;15.942;2023-07-16T02:39:43;21.40;99.90
24412;DHT22;12544;46.760;15.942;2023-07-16T02:42:10;21.40;99.90
24412;DHT22;12544;46.760;15.942;2023-07-16T02:44:35;21.40;99.90
24412;DHT22;12544;46.760;15.942;2023-07-16T02:47:07;21.30;99.90
24412;DHT22;12544;46.760;15.942;2023-07-16T02:49:33;21.20;99.90
24412;DHT22;12544;46.760;15.942;2023-07-16T02:51:58;21.20;99.90
24412;DHT22;12544;46.760;15.942;2023-07-16T02:54:24;21.20;99.90
24412;DHT22;12544;46.760;15.942;2023-07-16T02:56:50;21.10;99.90
24412;DHT22;12544;46.760;15.942;2023-07-16T02:59:15;21.10;99.90
24412;DHT22;12544;46.760;15.942;2023-07-16T03:01:41;21.00;99.90
24412;DHT22;12544;46.760;15.942;2023-07-16T03:04:06;20.90;99.90
24412;DHT22;12544;46.760;15.942;2023-07-16T03:06:32;20.90;99.90
24412;DHT22;12544;46.760;15.942;2023-07-16T03:08:57;20.90;99.90
24412;DHT22;12544;46.760;15.942;2023-07-16T03:11:23;20.90;99.90
24412;DHT22;12544;46.760;15.942;2023-07-16T03:13:49;21.00;99.90
24412;DHT22;12544;46.760;15.942;2023-07-16T03:16:14;20.90;99.90
24412;DHT22;12544;46.760;15.942;2023-07-16T03:18:40;20.90;99.90
24412;DHT22;12544;46.760;15.942;2023-07-16T03:21:06;20.80;99.90
24412;DHT22;12544;46.760;15.942;2023-07-16T03:23:31;20.80;99.90
24412;DHT22;12544;46.760;15.942;2023-07-16T03:25:57;20.90;99.90
24412;DHT22;12544;46.760;15.942;2023-07-16T03:28:22;20.90;99.90
24412;DHT22;12544;46.760;15.942;2023-07-16T03:30:50;20.90;99.90
24412;DHT22;12544;46.760;15.942;2023-07-16T03:33:16;20.80;99.90
24412;DHT22;12544;46.760;15.942;2023-07-16T03:35:45;20.80;99.90
24412;DHT22;12544;46.760;15.942;2023-07-16T03:38:11;20.80;99.90
24412;DHT22;12544;46.760;15.942;2023-07-16T03:40:37;20.80;99.90
24412;DHT22;12544;46.760;15.942;2023-07-16T03:43:03;20.70;99.90
24412;DHT22;12544;46.760;15.942;2023-07-16T03:45:28;20.70;99.90
24412;DHT22;12544;46.760;15.942;2023-07-16T03:47:54;20.80;99.90
24412;DHT22;12544;46.760;15.942;2023-07-16T03:50:20;20.70;99.90
24412;DHT22;12544;46.760;15.942;2023-07-16T03:52:47;20.80;99.90
24412;DHT22;12544;46.760;15.942;2023-07-16T03:55:13;20.80;99.90
24412;DHT22;12544;46.760;15.942;2023-07-16T03:57:38;20.70;99.90
24412;DHT22;12544;46.760;15.942;2023-07-16T04:00:05;20.70;99.90
24412;DHT22;12544;46.760;15.942;2023-07-16T04:02:35;20.80;99.90
24412;DHT22;12544;46.760;15.942;2023-07-16T04:05:01;20.80;99.90
24412;DHT22;12544;46.760;15.942;2023-07-16T04:07:27;20.80;99.90
24412;DHT22;12544;46.760;15.942;2023-07-16T04:09:53;20.80;99.90
24412;DHT22;12544;46.760;15.942;2023-07-16T04:12:18;20.80;99.90
24412;DHT22;12544;46.760;15.942;2023-07-16T04:14:44;20.90;99.90
24412;DHT22;12544;46.760;15.942;2023-07-16T04:17:10;20.90;99.90
24412;DHT22;12544;46.760;15.942;2023-07-16T04:19:35;20.90;99.90
24412;DHT22;12544;46.760;15.942;2023-07-16T04:22:01;20.90;99.90
24412;DHT22;12544;46.760;15.942;2023-07-16T04:24:27;20.80;99.90
24412;DHT22;12544;46.760;15.942;2023-07-16T04:26:56;20.80;99.90
24412;DHT22;12544;46.760;15.942;2023-07-16T04:29:22;20.80;99.90
24412;DHT22;12544;46.760;15.942;2023-07-16T04:31:47;20.80;99.90
24412;DHT22;12544;46.760;15.942;2023-07-16T04:34:13;20.80;99.90
24412;DHT22;12544;46.760;15.942;2023-07-16T04:36:39;20.80;99.90
24412;DHT22;12544;46.760;15.942;2023-07-16T04:39:04;20.90;99.90
24412;DHT22;12544;46.760;15.942;2023-07-16T04:41:30;20.90;99.90
24412;DHT22;12544;46.760;15.942;2023-07-16T04:43:56;20.90;99.90
24412;DHT22;12544;46.760;15.942;2023-07-16T04:46:21;20.90;99.90
24412;DHT22;12544;46.760;15.942;2023-07-16T04:48:47;21.00;99.90
24412;DHT22;12544;46.760;15.942;2023-07-16T04:51:13;21.00;99.90
24412;DHT22;12544;46.760;15.942;2023-07-16T04:53:39;21.20;99.90
24412;DHT22;12544;46.760;15.942;2023-07-16T04:56:04;21.30;99.90
24412;DHT22;12544;46.760;15.942;2023-07-16T04:58:35;21.40;99.90
24412;DHT22;12544;46.760;15.942;2023-07-16T05:01:01;21.50;99.90
24412;DHT22;12544;46.760;15.942;2023-07-16T05:03:26;21.50;99.90
24412;DHT22;12544;46.760;15.942;2023-07-16T05:05:52;21.60;99.90
24412;DHT22;12544;46.760;15.942;2023-07-16T05:08:17;21.70;99.90
24412;DHT22;12544;46.760;15.942;2023-07-16T05:10:43;21.70;99.90
24412;DHT22;12544;46.760;15.942;2023-07-16T05:13:09;21.80;99.90
24412;DHT22;12544;46.760;15.942;2023-07-16T05:18:56;21.90;99.90
24412;DHT22;12544;46.760;15.942;2023-07-16T05:21:22;21.90;99.90
24412;DHT22;12544;46.760;15.942;2023-07-16T05:23:47;22.00;99.90
24412;DHT22;12544;46.760;15.942;2023-07-16T05:26:13;22.10;99.90
24412;DHT22;12544;46.760;15.942;2023-07-16T05:28:38;22.20;99.90
24412;DHT22;12544;46.760;15.942;2023-07-16T05:31:04;22.30;99.90
24412;DHT22;12544;46.760;15.942;2023-07-16T05:33:30;22.40;99.90
24412;DHT22;12544;46.760;15.942;2023-07-16T05:39:17;22.50;99.90
24412;DHT22;12544;46.760;15.942;2023-07-16T05:41:43;22.60;99.90
24412;DHT22;12544;46.760;15.942;2023-07-16T05:44:08;22.60;99.90
24412;DHT22;12544;46.760;15.942;2023-07-16T05:49:56;22.80;99.90
24412;DHT22;12544;46.760;15.942;2023-07-16T05:52:22;22.80;99.90
24412;DHT22;12544;46.760;15.942;2023-07-16T05:54:47;22.90;99.90
24412;DHT22;12544;46.760;15.942;2023-07-16T06:00:35;23.10;99.90
24412;DHT22;12544;46.760;15.942;2023-07-16T06:03:04;23.20;99.90
24412;DHT22;12544;46.760;15.942;2023-07-16T06:05:29;23.20;99.90
24412;DHT22;12544;46.760;15.942;2023-07-16T06:08:00;23.30;99.90
24412;DHT22;12544;46.760;15.942;2023-07-16T06:10:26;23.40;99.90
24412;DHT22;12544;46.760;15.942;2023-07-16T06:12:51;23.40;99.90
24412;DHT22;12544;46.760;15.942;2023-07-16T06:15:17;23.40;99.90
24412;DHT22;12544;46.760;15.942;2023-07-16T06:17:42;23.50;99.90
24412;DHT22;12544;46.760;15.942;2023-07-16T06:20:08;23.60;99.90
24412;DHT22;12544;46.760;15.942;2023-07-16T06:22:34;23.60;99.90
24412;DHT22;12544;46.760;15.942;2023-07-16T06:25:00;23.70;99.90
24412;DHT22;12544;46.760;15.942;2023-07-16T06:27:26;23.80;99.90
24412;DHT22;12544;46.760;15.942;2023-07-16T06:29:52;23.90;99.90
24412;DHT22;12544;46.760;15.942;2023-07-16T06:32:17;24.00;99.90
24412;DHT22;12544;46.760;15.942;2023-07-16T06:34:43;24.00;99.90
24412;DHT22;12544;46.760;15.942;2023-07-16T06:37:09;24.10;99.90
24412;DHT22;12544;46.760;15.942;2023-07-16T06:39:34;24.20;99.90
24412;DHT22;12544;46.760;15.942;2023-07-16T06:45:22;24.30;99.90
24412;DHT22;12544;46.760;15.942;2023-07-16T06:47:48;24.50;99.90
24412;DHT22;12544;46.760;15.942;2023-07-16T06:50:14;24.60;99.90
24412;DHT22;12544;46.760;15.942;2023-07-16T06:56:01;24.80;99.90
24412;DHT22;12544;46.760;15.942;2023-07-16T06:58:33;25.00;99.90
24412;DHT22;12544;46.760;15.942;2023-07-16T07:00:59;25.20;99.90
24412;DHT22;12544;46.760;15.942;2023-07-16T07:03:25;25.30;99.90
24412;DHT22;12544;46.760;15.942;2023-07-16T07:05:50;25.40;99.90
24412;DHT22;12544;46.760;15.942;2023-07-16T07:08:16;25.50;99.90
24412;DHT22;12544;46.760;15.942;2023-07-16T07:10:41;25.70;99.90
24412;DHT22;12544;46.760;15.942;2023-07-16T07:13:07;25.80;99.90
24412;DHT22;12544;46.760;15.942;2023-07-16T07:15:33;25.90;99.90
24412;DHT22;12544;46.760;15.942;2023-07-16T07:17:58;26.00;99.90
24412;DHT22;12544;46.760;15.942;2023-07-16T07:20:24;26.10;99.90
24412;DHT22;12544;46.760;15.942;2023-07-16T07:22:49;26.10;99.90
24412;DHT22;12544;46.760;15.942;2023-07-16T07:25:15;26.20;99.90
24412;DHT22;12544;46.760;15.942;2023-07-16T07:31:03;26.30;99.90
24412;DHT22;12544;46.760;15.942;2023-07-16T07:33:28;26.30;99.90
24412;DHT22;12544;46.760;15.942;2023-07-16T07:35:54;26.40;99.90
24412;DHT22;12544;46.760;15.942;2023-07-16T07:38:20;26.50;99.90
24412;DHT22;12544;46.760;15.942;2023-07-16T07:40:46;26.50;99.90
24412;DHT22;12544;46.760;15.942;2023-07-16T07:43:11;26.60;99.90
24412;DHT22;12544;46.760;15.942;2023-07-16T07:48:59;26.80;99.90
24412;DHT22;12544;46.760;15.942;2023-07-16T07:51:25;26.90;99.90
24412;DHT22;12544;46.760;15.942;2023-07-16T07:53:50;27.10;99.90
24412;DHT22;12544;46.760;15.942;2023-07-16T07:56:16;27.20;99.90
24412;DHT22;12544;46.760;15.942;2023-07-16T07:58:42;27.30;99.90
24412;DHT22;12544;46.760;15.942;2023-07-16T08:01:07;27.30;99.90
24412;DHT22;12544;46.760;15.942;2023-07-16T08:03:33;27.40;99.90
24412;DHT22;12544;46.760;15.942;2023-07-16T08:05:59;27.50;99.90
24412;DHT22;12544;46.760;15.942;2023-07-16T08:15:09;28.00;99.90
24412;DHT22;12544;46.760;15.942;2023-07-16T08:17:42;28.10;99.90
24412;DHT22;12544;46.760;15.942;2023-07-16T08:20:08;28.00;99.90
24412;DHT22;12544;46.760;15.942;2023-07-16T08:22:34;28.10;99.90
24412;DHT22;12544;46.760;15.942;2023-07-16T08:25:00;28.10;99.90
24412;DHT22;12544;46.760;15.942;2023-07-16T08:27:26;28.10;99.90
24412;DHT22;12544;46.760;15.942;2023-07-16T08:29:51;28.10;99.90
24412;DHT22;12544;46.760;15.942;2023-07-16T08:32:17;28.10;99.90
24412;DHT22;12544;46.760;15.942;2023-07-16T08:34:42;28.20;99.90
24412;DHT22;12544;46.760;15.942;2023-07-16T08:40:30;28.30;99.90
24412;DHT22;12544;46.760;15.942;2023-07-16T08:42:56;28.40;99.90
24412;DHT22;12544;46.760;15.942;2023-07-16T08:48:45;28.40;99.90
24412;DHT22;12544;46.760;15.942;2023-07-16T08:51:16;28.40;99.90
24412;DHT22;12544;46.760;15.942;2023-07-16T08:53:42;28.40;99.90
24412;DHT22;12544;46.760;15.942;2023-07-16T08:56:08;28.40;99.90
24412;DHT22;12544;46.760;15.942;2023-07-16T08:58:34;28.40;99.90
24412;DHT22;12544;46.760;15.942;2023-07-16T09:04:22;28.50;99.90
24412;DHT22;12544;46.760;15.942;2023-07-16T09:10:11;29.00;99.90
24412;DHT22;12544;46.760;15.942;2023-07-16T09:12:45;29.10;99.90
24412;DHT22;12544;46.760;15.942;2023-07-16T09:15:18;29.10;99.90
24412;DHT22;12544;46.760;15.942;2023-07-16T09:17:48;29.20;99.90
24412;DHT22;12544;46.760;15.942;2023-07-16T09:20:17;29.10;99.90
24412;DHT22;12544;46.760;15.942;2023-07-16T09:26:05;29.20;99.90
24412;DHT22;12544;46.760;15.942;2023-07-16T09:34:18;29.40;99.90
24412;DHT22;12544;46.760;15.942;2023-07-16T09:36:46;29.50;99.90
24412;DHT22;12544;46.760;15.942;2023-07-16T09:39:12;29.60;99.90
24412;DHT22;12544;46.760;15.942;2023-07-16T09:41:38;29.70;99.90
24412;DHT22;12544;46.760;15.942;2023-07-16T09:44:06;29.80;99.90
24412;DHT22;12544;46.760;15.942;2023-07-16T09:46:31;29.80;99.90
24412;DHT22;12544;46.760;15.942;2023-07-16T09:52:19;29.90;99.90
24412;DHT22;12544;46.760;15.942;2023-07-16T09:54:46;29.90;99.90
24412;DHT22;12544;46.760;15.942;2023-07-16T09:57:12;29.90;99.90
24412;DHT22;12544;46.760;15.942;2023-07-16T10:03:02;29.90;99.90
24412;DHT22;12544;46.760;15.942;2023-07-16T10:05:28;29.90;99.90
24412;DHT22;12544;46.760;15.942;2023-07-16T10:07:58;30.00;99.90
24412;DHT22;12544;46.760;15.942;2023-07-16T10:13:49;30.30;99.90
24412;DHT22;12544;46.760;15.942;2023-07-16T10:16:22;30.50;99.90
24412;DHT22;12544;46.760;15.942;2023-07-16T10:18:52;30.60;99.90
24412;DHT22;12544;46.760;15.942;2023-07-16T10:21:24;30.70;99.90
24412;DHT22;12544;46.760;15.942;2023-07-16T10:23:57;30.70;99.90
24412;DHT22;12544;46.760;15.942;2023-07-16T10:26:27;30.70;99.90
24412;DHT22;12544;46.760;15.942;2023-07-16T10:32:17;31.00;99.90
24412;DHT22;12544;46.760;15.942;2023-07-16T10:34:43;31.20;99.90
24412;DHT22;12544;46.760;15.942;2023-07-16T10:37:09;31.30;99.90
24412;DHT22;12544;46.760;15.942;2023-07-16T10:42:41;31.60;99.90
24412;DHT22;12544;46.760;15.942;2023-07-16T10:45:12;31.60;99.90
24412;DHT22;12544;46.760;15.942;2023-07-16T10:50:59;31.70;99.90
24412;DHT22;12544;46.760;15.942;2023-07-16T10:53:24;31.80;99.90
24412;DHT22;12544;46.760;15.942;2023-07-16T10:55:50;31.90;99.90
24412;DHT22;12544;46.760;15.942;2023-07-16T10:58:16;31.90;99.90
24412;DHT22;12544;46.760;15.942;2023-07-16T11:00:41;31.80;99.00
24412;DHT22;12544;46.760;15.942;2023-07-16T11:03:07;31.70;99.90
24412;DHT22;12544;46.760;15.942;2023-07-16T11:05:34;31.70;99.00
24412;DHT22;12544;46.760;15.942;2023-07-16T11:08:00;31.80;98.90
24412;DHT22;12544;46.760;15.942;2023-07-16T11:10:28;32.00;99.00
24412;DHT22;12544;46.760;15.942;2023-07-16T11:12:55;32.20;99.20
24412;DHT22;12544;46.760;15.942;2023-07-16T11:15:33;32.20;98.90
24412;DHT22;12544;46.760;15.942;2023-07-16T11:18:03;32.30;98.40
24412;DHT22;12544;46.760;15.942;2023-07-16T11:20:30;32.10;99.10
24412;DHT22;12544;46.760;15.942;2023-07-16T11:22:58;32.10;99.00
24412;DHT22;12544;46.760;15.942;2023-07-16T11:28:50;32.40;97.20
24412;DHT22;12544;46.760;15.942;2023-07-16T11:31:17;32.50;96.20
24412;DHT22;12544;46.760;15.942;2023-07-16T11:33:44;32.50;97.70
24412;DHT22;12544;46.760;15.942;2023-07-16T11:36:09;32.60;95.30
24412;DHT22;12544;46.760;15.942;2023-07-16T11:38:36;32.80;97.20
24412;DHT22;12544;46.760;15.942;2023-07-16T11:41:02;33.00;95.00
24412;DHT22;12544;46.760;15.942;2023-07-16T11:43:28;33.20;95.10
24412;DHT22;12544;46.760;15.942;2023-07-16T11:45:54;33.20;95.60
24412;DHT22;12544;46.760;15.942;2023-07-16T11:48:19;33.50;96.20
24412;DHT22;12544;46.760;15.942;2023-07-16T11:50:45;33.50;95.30
24412;DHT22;12544;46.760;15.942;2023-07-16T11:53:11;33.60;93.90
24412;DHT22;12544;46.760;15.942;2023-07-16T11:55:36;33.60;95.30
24412;DHT22;12544;46.760;15.942;2023-07-16T11:58:02;33.70;94.70
24412;DHT22;12544;46.760;15.942;2023-07-16T12:00:28;33.80;93.30
24412;DHT22;12544;46.760;15.942;2023-07-16T12:02:54;33.90;93.40
24412;DHT22;12544;46.760;15.942;2023-07-16T12:05:21;34.00;92.00
24412;DHT22;12544;46.760;15.942;2023-07-16T12:07:47;34.10;93.20
24412;DHT22;12544;46.760;15.942;2023-07-16T12:10:12;34.10;92.20
24412;DHT22;12544;46.760;15.942;2023-07-16T12:12:38;34.30;92.70
24412;DHT22;12544;46.760;15.942;2023-07-16T12:15:08;34.40;92.30
24412;DHT22;12544;46.760;15.942;2023-07-16T12:17:34;34.40;91.80
24412;DHT22;12544;46.760;15.942;2023-07-16T12:20:00;34.40;90.60
24412;DHT22;12544;46.760;15.942;2023-07-16T12:22:27;34.50;91.00
24412;DHT22;12544;46.760;15.942;2023-07-16T12:24:52;34.50;90.10
24412;DHT22;12544;46.760;15.942;2023-07-16T12:27:18;34.60;91.40
24412;DHT22;12544;46.760;15.942;2023-07-16T12:29:44;34.60;90.60
24412;DHT22;12544;46.760;15.942;2023-07-16T12:32:10;34.80;90.40
24412;DHT22;12544;46.760;15.942;2023-07-16T12:34:36;35.00;90.60
24412;DHT22;12544;46.760;15.942;2023-07-16T12:37:02;35.00;90.40
24412;DHT22;12544;46.760;15.942;2023-07-16T12:39:28;35.00;89.50
24412;DHT22;12544;46.760;15.942;2023-07-16T12:41:54;35.00;88.50
24412;DHT22;12544;46.760;15.942;2023-07-16T12:44:20;35.10;90.80
24412;DHT22;12544;46.760;15.942;2023-07-16T12:46:45;35.00;89.40
24412;DHT22;12544;46.760;15.942;2023-07-16T12:49:11;34.80;87.50
24412;DHT22;12544;46.760;15.942;2023-07-16T12:51:36;34.80;91.00
24412;DHT22;12544;46.760;15.942;2023-07-16T12:54:02;34.90;90.10
24412;DHT22;12544;46.760;15.942;2023-07-16T12:56:28;35.00;89.70
24412;DHT22;12544;46.760;15.942;2023-07-16T12:58:53;35.00;88.80
24412;DHT22;12544;46.760;15.942;2023-07-16T13:01:19;35.00;87.20
24412;DHT22;12544;46.760;15.942;2023-07-16T13:03:45;35.20;87.40
24412;DHT22;12544;46.760;15.942;2023-07-16T13:06:10;35.40;84.00
24412;DHT22;12544;46.760;15.942;2023-07-16T13:08:36;35.60;86.60
24412;DHT22;12544;46.760;15.942;2023-07-16T13:11:02;35.70;82.00
24412;DHT22;12544;46.760;15.942;2023-07-16T13:13:27;35.60;83.90
24412;DHT22;12544;46.760;15.942;2023-07-16T13:15:54;35.40;82.50
24412;DHT22;12544;46.760;15.942;2023-07-16T13:18:19;35.50;83.90
24412;DHT22;12544;46.760;15.942;2023-07-16T13:20:45;35.50;84.30
24412;DHT22;12544;46.760;15.942;2023-07-16T13:23:10;35.60;85.80
24412;DHT22;12544;46.760;15.942;2023-07-16T13:25:36;35.60;86.20
24412;DHT22;12544;46.760;15.942;2023-07-16T13:28:06;35.60;86.90
24412;DHT22;12544;46.760;15.942;2023-07-16T13:30:32;35.40;84.40
24412;DHT22;12544;46.760;15.942;2023-07-16T13:32:58;35.50;83.80
24412;DHT22;12544;46.760;15.942;2023-07-16T13:35:24;35.60;82.30
24412;DHT22;12544;46.760;15.942;2023-07-16T13:37:49;35.80;85.30
24412;DHT22;12544;46.760;15.942;2023-07-16T13:40:16;36.00;84.70
24412;DHT22;12544;46.760;15.942;2023-07-16T13:42:42;36.20;83.30
24412;DHT22;12544;46.760;15.942;2023-07-16T13:45:08;36.20;82.30
24412;DHT22;12544;46.760;15.942;2023-07-16T13:47:34;36.10;81.60
24412;DHT22;12544;46.760;15.942;2023-07-16T13:49:59;36.00;81.80
24412;DHT22;12544;46.760;15.942;2023-07-16T13:52:25;36.00;84.00
24412;DHT22;12544;46.760;15.942;2023-07-16T13:54:51;36.00;83.70
24412;DHT22;12544;46.760;15.942;2023-07-16T13:57:16;36.00;85.90
24412;DHT22;12544;46.760;15.942;2023-07-16T13:59:42;36.00;78.30
24412;DHT22;12544;46.760;15.942;2023-07-16T14:02:08;35.90;80.40
24412;DHT22;12544;46.760;15.942;2023-07-16T14:04:33;35.90;82.40
24412;DHT22;12544;46.760;15.942;2023-07-16T14:06:59;36.00;80.40
24412;DHT22;12544;46.760;15.942;2023-07-16T14:09:25;35.90;82.20
24412;DHT22;12544;46.760;15.942;2023-07-16T14:11:51;35.80;84.20
24412;DHT22;12544;46.760;15.942;2023-07-16T14:14:17;35.80;84.80
24412;DHT22;12544;46.760;15.942;2023-07-16T14:16:43;35.80;83.60
24412;DHT22;12544;46.760;15.942;2023-07-16T14:19:09;36.00;83.00
24412;DHT22;12544;46.760;15.942;2023-07-16T14:21:35;35.90;80.40
24412;DHT22;12544;46.760;15.942;2023-07-16T14:24:00;35.80;79.40
24412;DHT22;12544;46.760;15.942;2023-07-16T14:26:26;35.70;79.20
24412;DHT22;12544;46.760;15.942;2023-07-16T14:28:52;35.70;81.90
24412;DHT22;12544;46.760;15.942;2023-07-16T14:31:18;35.70;80.10
24412;DHT22;12544;46.760;15.942;2023-07-16T14:33:43;35.70;82.10
24412;DHT22;12544;46.760;15.942;2023-07-16T14:36:09;35.80;78.30
24412;DHT22;12544;46.760;15.942;2023-07-16T14:38:35;35.90;80.50
24412;DHT22;12544;46.760;15.942;2023-07-16T14:41:00;36.10;80.50
24412;DHT22;12544;46.760;15.942;2023-07-16T14:43:26;36.10;79.10
24412;DHT22;12544;46.760;15.942;2023-07-16T14:45:51;36.00;80.40
24412;DHT22;12544;46.760;15.942;2023-07-16T14:48:17;35.90;81.10
24412;DHT22;12544;46.760;15.942;2023-07-16T14:50:43;35.90;79.50
24412;DHT22;12544;46.760;15.942;2023-07-16T14:53:08;36.10;81.60
24412;DHT22;12544;46.760;15.942;2023-07-16T14:55:34;36.00;80.50
24412;DHT22;12544;46.760;15.942;2023-07-16T14:58:00;36.00;82.30
24412;DHT22;12544;46.760;15.942;2023-07-16T15:03:47;35.80;83.70
24412;DHT22;12544;46.760;15.942;2023-07-16T15:06:13;35.90;82.80
24412;DHT22;12544;46.760;15.942;2023-07-16T15:08:40;35.90;82.50
24412;DHT22;12544;46.760;15.942;2023-07-16T15:11:06;35.80;81.40
24412;DHT22;12544;46.760;15.942;2023-07-16T15:13:32;35.60;81.30
24412;DHT22;12544;46.760;15.942;2023-07-16T15:15:57;35.30;82.60
24412;DHT22;12544;46.760;15.942;2023-07-16T15:21:45;35.40;83.30
24412;DHT22;12544;46.760;15.942;2023-07-16T15:24:10;35.40;86.10
24412;DHT22;12544;46.760;15.942;2023-07-16T15:26:38;35.20;81.20
24412;DHT22;12544;46.760;15.942;2023-07-16T15:29:03;35.10;83.40
24412;DHT22;12544;46.760;15.942;2023-07-16T15:31:29;35.00;82.70
24412;DHT22;12544;46.760;15.942;2023-07-16T15:33:56;35.10;85.20
24412;DHT22;12544;46.760;15.942;2023-07-16T15:36:24;35.20;83.70
24412;DHT22;12544;46.760;15.942;2023-07-16T15:38:50;35.20;82.10
24412;DHT22;12544;46.760;15.942;2023-07-16T15:41:17;35.10;86.70
24412;DHT22;12544;46.760;15.942;2023-07-16T15:43:47;35.30;84.20
24412;DHT22;12544;46.760;15.942;2023-07-16T15:46:16;35.40;85.30
24412;DHT22;12544;46.760;15.942;2023-07-16T15:48:41;35.20;83.40
24412;DHT22;12544;46.760;15.942;2023-07-16T15:51:09;35.20;84.10
24412;DHT22;12544;46.760;15.942;2023-07-16T15:53:34;35.20;84.60
24412;DHT22;12544;46.760;15.942;2023-07-16T15:56:00;35.10;85.10
24412;DHT22;12544;46.760;15.942;2023-07-16T15:58:25;35.00;84.50
24412;DHT22;12544;46.760;15.942;2023-07-16T16:00:51;35.00;87.10
24412;DHT22;12544;46.760;15.942;2023-07-16T16:03:17;34.80;84.40
24412;DHT22;12544;46.760;15.942;2023-07-16T16:05:42;34.70;85.60
24412;DHT22;12544;46.760;15.942;2023-07-16T16:08:19;34.70;85.20
24412;DHT22;12544;46.760;15.942;2023-07-16T16:10:51;34.70;85.90
24412;DHT22;12544;46.760;15.942;2023-07-16T16:13:21;34.60;87.60
24412;DHT22;12544;46.760;15.942;2023-07-16T16:15:48;34.70;86.90
24412;DHT22;12544;46.760;15.942;2023-07-16T16:18:14;34.70;87.90
24412;DHT22;12544;46.760;15.942;2023-07-16T16:20:41;34.80;90.00
24412;DHT22;12544;46.760;15.942;2023-07-16T16:23:07;34.80;87.80
24412;DHT22;12544;46.760;15.942;2023-07-16T16:25:33;34.90;87.50
24412;DHT22;12544;46.760;15.942;2023-07-16T16:28:03;34.90;89.30
24412;DHT22;12544;46.760;15.942;2023-07-16T16:30:33;34.90;87.80
24412;DHT22;12544;46.760;15.942;2023-07-16T16:32:59;34.80;89.80
24412;DHT22;12544;46.760;15.942;2023-07-16T16:35:32;34.70;89.40
24412;DHT22;12544;46.760;15.942;2023-07-16T16:37:57;34.70;89.30
24412;DHT22;12544;46.760;15.942;2023-07-16T16:40:23;34.70;88.70
24412;DHT22;12544;46.760;15.942;2023-07-16T16:42:49;34.70;89.00